createdAt,value
2022-10-20T00:01:12.872Z,2.30
2022-10-20T00:03:40.054Z,2.30
2022-10-20T00:06:08.319Z,2.30
2022-10-20T00:08:35.101Z,2.30
2022-10-20T00:11:01.830Z,2.20
2022-10-20T00:13:28.502Z,2.20
2022-10-20T00:15:56.239Z,2.20
2022-10-20T00:18:24.114Z,2.20
2022-10-20T00:20:51.982Z,2.20
2022-10-20T00:23:19.154Z,2.20
2022-10-20T00:25:46.215Z,2.10
2022-10-20T00:28:12.903Z,2.10
2022-10-20T00:30:40.105Z,2.00
2022-10-20T00:33:06.927Z,2.00
2022-10-20T00:35:37.569Z,2.00
2022-10-20T00:38:04.262Z,2.00
2022-10-20T00:40:30.952Z,1.90
2022-10-20T00:42:57.604Z,1.90
2022-10-20T00:45:24.406Z,1.90
2022-10-20T00:47:58.942Z,1.90
2022-10-20T00:50:34.385Z,1.80
2022-10-20T00:53:02.425Z,1.80
2022-10-20T00:55:32.325Z,1.80
2022-10-20T00:58:01.100Z,1.80
2022-10-20T01:00:28.750Z,1.70
2022-10-20T01:03:00.773Z,1.70
2022-10-20T01:05:30.810Z,1.70
2022-10-20T01:08:04.170Z,1.70
2022-10-20T01:10:45.364Z,1.70
2022-10-20T01:13:34.839Z,1.70
2022-10-20T01:16:12.377Z,1.60
2022-10-20T01:18:55.158Z,1.60
2022-10-20T01:21:43.486Z,1.60
2022-10-20T01:24:18.589Z,1.60
2022-10-20T01:27:10.386Z,1.60
2022-10-20T01:29:59.915Z,1.50
2022-10-20T01:32:57.214Z,2.30
2022-10-20T01:36:04.096Z,1.50
2022-10-20T01:39:10.058Z,1.50
2022-10-20T01:41:48.377Z,1.50
2022-10-20T01:44:21.450Z,1.40
2022-10-20T01:46:48.880Z,1.40
2022-10-20T01:49:18.905Z,1.50
2022-10-20T01:51:48.290Z,1.40
2022-10-20T01:54:28.542Z,1.40
2022-10-20T01:57:17.704Z,1.40
2022-10-20T02:00:05.662Z,1.40
2022-10-20T02:02:51.294Z,1.30
2022-10-20T02:05:21.579Z,1.30
2022-10-20T02:07:53.883Z,1.30
2022-10-20T02:10:36.811Z,1.30
2022-10-20T02:13:22.655Z,1.30
2022-10-20T02:15:55.858Z,1.30
2022-10-20T02:18:41.397Z,1.30
2022-10-20T02:21:11.987Z,1.30
2022-10-20T02:23:45.302Z,1.30
2022-10-20T02:26:22.073Z,1.30
2022-10-20T02:28:53.782Z,1.30
2022-10-20T02:31:21.445Z,1.30
2022-10-20T02:33:48.586Z,1.20
2022-10-20T02:36:25.056Z,3.00
2022-10-20T02:38:51.735Z,1.20
2022-10-20T02:41:18.691Z,1.20
2022-10-20T02:43:53.043Z,1.20
2022-10-20T02:46:22.993Z,1.10
2022-10-20T02:48:51.937Z,1.20
2022-10-20T02:51:22.147Z,1.10
2022-10-20T02:53:50.042Z,1.10
2022-10-20T02:56:16.935Z,1.10
2022-10-20T02:58:44.238Z,1.00
2022-10-20T03:01:17.520Z,1.10
2022-10-20T03:03:53.273Z,1.10
2022-10-20T03:06:20.379Z,1.10
2022-10-20T03:08:47.717Z,1.00
2022-10-20T03:11:35.831Z,1.00
2022-10-20T03:14:05.623Z,1.00
2022-10-20T03:16:33.122Z,1.00
2022-10-20T03:19:03.992Z,1.00
2022-10-20T03:21:36.963Z,1.00
2022-10-20T03:24:10.060Z,1.50
2022-10-20T03:26:42.153Z,0.90
2022-10-20T03:29:09.116Z,0.90
2022-10-20T03:31:35.935Z,0.90
2022-10-20T03:34:02.672Z,0.80
2022-10-20T03:36:29.359Z,0.80
2022-10-20T03:38:56.018Z,0.80
2022-10-20T03:41:22.678Z,0.80
2022-10-20T03:43:49.396Z,0.80
2022-10-20T03:46:16.217Z,0.80
2022-10-20T03:48:42.980Z,0.80
2022-10-20T03:51:12.130Z,0.70
2022-10-20T03:53:38.930Z,0.70
2022-10-20T03:56:08.319Z,2.60
2022-10-20T03:58:35.237Z,0.70
2022-10-20T04:01:03.133Z,0.60
2022-10-20T04:03:29.788Z,0.70
2022-10-20T04:05:56.510Z,0.70
2022-10-20T04:08:23.275Z,0.60
2022-10-20T04:10:49.943Z,0.70
2022-10-20T04:13:16.742Z,0.70
2022-10-20T04:15:43.432Z,0.60
2022-10-20T04:18:10.139Z,0.60
2022-10-20T04:20:39.304Z,0.60
2022-10-20T04:23:08.908Z,0.60
2022-10-20T04:25:35.843Z,0.60
2022-10-20T04:28:02.507Z,0.60
2022-10-20T04:30:29.272Z,0.60
2022-10-20T04:32:55.965Z,0.60
2022-10-20T04:35:22.830Z,0.60
2022-10-20T04:37:49.513Z,0.60
2022-10-20T04:40:16.316Z,0.60
2022-10-20T04:42:43.060Z,0.50
2022-10-20T04:45:10.094Z,0.60
2022-10-20T04:47:37.738Z,0.60
2022-10-20T04:50:06.021Z,0.60
2022-10-20T04:52:32.758Z,0.60
2022-10-20T04:54:59.440Z,0.50
2022-10-20T04:57:26.500Z,0.50
2022-10-20T04:59:53.278Z,0.50
2022-10-20T05:02:19.953Z,0.50
2022-10-20T05:04:47.018Z,0.50
2022-10-20T05:07:13.792Z,0.40
2022-10-20T05:09:40.549Z,0.30
2022-10-20T05:12:07.791Z,0.50
2022-10-20T05:14:34.604Z,0.40
2022-10-20T05:17:03.212Z,0.40
2022-10-20T05:19:31.943Z,0.40
2022-10-20T05:21:58.642Z,0.40
2022-10-20T05:24:29.144Z,0.40
2022-10-20T05:26:57.241Z,0.40
2022-10-20T05:29:24.176Z,0.40
2022-10-20T05:31:51.166Z,0.30
2022-10-20T05:34:17.879Z,0.30
2022-10-20T05:36:44.607Z,0.30
2022-10-20T05:39:11.493Z,0.30
2022-10-20T05:41:39.423Z,0.20
2022-10-20T05:44:11.365Z,0.30
2022-10-20T05:46:41.225Z,0.30
2022-10-20T05:49:15.619Z,0.30
2022-10-20T05:51:43.444Z,0.30
2022-10-20T05:54:11.984Z,0.30
2022-10-20T05:56:39.024Z,0.40
2022-10-20T05:59:05.803Z,0.40
2022-10-20T06:01:49.404Z,0.30
2022-10-20T06:04:24.745Z,0.40
2022-10-20T06:06:52.315Z,0.40
2022-10-20T06:09:20.066Z,0.40
2022-10-20T06:11:47.754Z,0.50
2022-10-20T06:14:15.055Z,0.60
2022-10-20T06:16:41.771Z,0.60
2022-10-20T06:19:08.579Z,0.70
2022-10-20T06:21:36.920Z,0.70
2022-10-20T06:24:05.335Z,0.80
2022-10-20T06:26:33.946Z,0.90
2022-10-20T06:29:04.423Z,0.90
2022-10-20T06:31:34.039Z,1.00
2022-10-20T06:34:01.345Z,1.10
2022-10-20T06:36:28.500Z,1.20
2022-10-20T06:38:59.080Z,1.30
2022-10-20T06:41:26.957Z,1.40
2022-10-20T06:44:00.525Z,1.40
2022-10-20T06:46:30.084Z,1.50
2022-10-20T06:48:58.746Z,1.60
2022-10-20T06:51:25.851Z,1.70
2022-10-20T06:53:53.104Z,1.80
2022-10-20T06:56:22.929Z,1.90
2022-10-20T06:58:52.290Z,2.00
2022-10-20T07:01:23.350Z,2.10
2022-10-20T07:03:51.667Z,2.20
2022-10-20T07:06:21.248Z,2.30
2022-10-20T07:08:48.282Z,2.40
2022-10-20T07:11:17.985Z,3.90
2022-10-20T07:13:46.350Z,2.70
2022-10-20T07:16:15.070Z,2.70
2022-10-20T07:18:41.915Z,2.90
2022-10-20T07:21:12.492Z,3.00
2022-10-20T07:23:39.761Z,3.10
2022-10-20T07:26:12.293Z,3.10
2022-10-20T07:28:42.668Z,3.20
2022-10-20T07:31:21.830Z,3.30
2022-10-20T07:34:07.049Z,3.40
2022-10-20T07:36:37.431Z,3.50
2022-10-20T07:39:06.552Z,3.70
2022-10-20T07:41:34.148Z,3.80
2022-10-20T07:44:00.888Z,3.80
2022-10-20T07:46:28.010Z,3.90
2022-10-20T07:48:54.730Z,4.00
2022-10-20T07:51:27.215Z,4.10
2022-10-20T07:53:59.907Z,4.20
2022-10-20T07:56:30.870Z,4.30
2022-10-20T07:58:57.784Z,4.40
2022-10-20T08:01:25.037Z,4.50
2022-10-20T08:03:51.912Z,4.60
2022-10-20T08:06:18.896Z,4.70
2022-10-20T08:08:45.672Z,4.80
2022-10-20T08:11:12.506Z,4.90
2022-10-20T08:13:40.981Z,5.00
2022-10-20T08:16:12.276Z,5.10
2022-10-20T08:18:45.220Z,5.20
2022-10-20T08:21:18.540Z,5.30
2022-10-20T08:23:47.325Z,5.40
2022-10-20T08:26:18.482Z,5.50
2022-10-20T08:28:45.264Z,5.60
2022-10-20T08:31:12.042Z,5.70
2022-10-20T08:33:39.885Z,5.80
2022-10-20T08:36:09.098Z,5.90
2022-10-20T08:38:36.610Z,6.00
2022-10-20T08:41:07.027Z,6.10
2022-10-20T08:43:40.327Z,6.20
2022-10-20T08:46:11.318Z,6.30
2022-10-20T08:48:39.009Z,6.50
2022-10-20T08:51:05.894Z,7.60
2022-10-20T08:53:39.320Z,6.60
2022-10-20T08:56:06.945Z,6.70
2022-10-20T08:58:34.018Z,6.70
2022-10-20T09:01:01.381Z,6.90
2022-10-20T09:03:31.148Z,7.00
2022-10-20T09:06:08.174Z,8.20
2022-10-20T09:08:37.740Z,7.20
2022-10-20T09:11:07.409Z,7.30
2022-10-20T09:13:34.907Z,7.40
2022-10-20T09:16:06.325Z,7.50
2022-10-20T09:18:34.440Z,7.60
2022-10-20T09:21:09.988Z,7.60
2022-10-20T09:23:43.503Z,7.70
2022-10-20T09:26:54.111Z,7.80
2022-10-20T09:29:34.633Z,8.00
2022-10-20T09:32:11.441Z,8.10
2022-10-20T09:34:47.961Z,8.10
2022-10-20T09:37:18.793Z,8.20
2022-10-20T09:39:52.696Z,8.30
2022-10-20T09:42:43.215Z,8.40
2022-10-20T09:45:15.959Z,8.50
2022-10-20T09:47:45.440Z,8.60
2022-10-20T09:50:20.018Z,8.60
2022-10-20T09:52:48.004Z,8.70
2022-10-20T09:55:47.863Z,8.80
2022-10-20T09:58:26.360Z,8.80
2022-10-20T10:01:06.036Z,8.90
2022-10-20T10:03:47.207Z,9.00
2022-10-20T10:06:44.176Z,9.00
2022-10-20T10:09:31.958Z,9.10
2022-10-20T10:12:15.821Z,9.30
2022-10-20T10:15:02.033Z,9.30
2022-10-20T10:17:34.806Z,9.30
2022-10-20T10:20:05.416Z,9.40
2022-10-20T10:22:32.399Z,9.40
2022-10-20T10:25:01.239Z,9.40
2022-10-20T10:27:38.559Z,9.50
2022-10-20T10:30:31.812Z,9.60
2022-10-20T10:32:58.614Z,9.60
2022-10-20T10:35:37.766Z,9.70
2022-10-20T10:38:04.710Z,9.70
2022-10-20T10:40:36.757Z,9.70
2022-10-20T10:43:35.292Z,9.80
2022-10-20T10:46:07.640Z,9.80
2022-10-20T10:48:55.524Z,9.90
2022-10-20T10:51:56.327Z,9.90
2022-10-20T10:54:27.723Z,9.90
2022-10-20T10:57:06.087Z,10.10
2022-10-20T10:59:42.672Z,11.60
2022-10-20T11:02:41.817Z,10.00
2022-10-20T11:05:38.695Z,10.00
2022-10-20T11:08:28.720Z,10.00
2022-10-20T11:11:16.501Z,10.00
2022-10-20T11:13:49.320Z,10.10
2022-10-20T11:16:22.163Z,10.10
2022-10-20T11:19:08.163Z,10.20
2022-10-20T11:21:47.246Z,10.20
2022-10-20T11:24:28.008Z,10.30
2022-10-20T11:27:07.947Z,10.20
2022-10-20T11:29:57.587Z,11.20
2022-10-20T11:32:31.342Z,10.30
2022-10-20T11:35:17.041Z,10.30
2022-10-20T11:37:50.185Z,10.40
2022-10-20T11:40:26.788Z,10.40
2022-10-20T11:43:08.805Z,10.40
2022-10-20T11:45:49.623Z,10.50
2022-10-20T11:48:23.752Z,10.50
2022-10-20T11:51:10.116Z,10.60
2022-10-20T11:54:07.972Z,10.60
2022-10-20T11:56:49.653Z,10.60
2022-10-20T11:59:48.153Z,10.60
2022-10-20T12:02:19.227Z,10.60
2022-10-20T12:05:04.582Z,10.60
2022-10-20T12:08:17.551Z,10.70
2022-10-20T12:11:16.427Z,10.70
2022-10-20T12:14:07.832Z,10.70
2022-10-20T12:16:55.608Z,10.70
2022-10-20T12:19:34.504Z,10.80
2022-10-20T12:22:30.169Z,10.70
2022-10-20T12:24:56.809Z,10.80
2022-10-20T12:27:26.239Z,10.80
2022-10-20T12:30:01.653Z,10.70
2022-10-20T12:32:28.331Z,10.80
2022-10-20T12:34:57.912Z,10.70
2022-10-20T12:37:24.718Z,10.80
2022-10-20T12:39:53.555Z,10.80
2022-10-20T12:42:24.087Z,10.70
2022-10-20T12:44:51.535Z,10.80
2022-10-20T12:47:22.066Z,10.70
2022-10-20T12:50:03.569Z,10.80
2022-10-20T12:52:33.697Z,10.80
2022-10-20T12:55:18.615Z,10.80
2022-10-20T12:57:46.262Z,10.80
2022-10-20T13:00:22.438Z,10.80
2022-10-20T13:02:53.135Z,10.80
2022-10-20T13:05:20.154Z,11.50
2022-10-20T13:07:46.923Z,11.40
2022-10-20T13:10:36.788Z,10.90
2022-10-20T13:13:03.450Z,10.90
2022-10-20T13:15:36.410Z,10.90
2022-10-20T13:18:12.254Z,10.90
2022-10-20T13:20:57.864Z,10.90
2022-10-20T13:23:39.542Z,10.90
2022-10-20T13:26:30.900Z,10.90
2022-10-20T13:29:01.023Z,11.00
2022-10-20T13:31:58.176Z,10.90
2022-10-20T13:34:44.645Z,10.90
2022-10-20T13:37:42.304Z,10.90
2022-10-20T13:40:27.411Z,10.90
2022-10-20T13:43:21.391Z,10.80
2022-10-20T13:46:11.488Z,10.90
2022-10-20T13:49:06.814Z,10.90
2022-10-20T13:51:42.601Z,10.80
2022-10-20T13:54:22.275Z,10.80
2022-10-20T13:56:50.268Z,10.70
2022-10-20T14:02:00.573Z,10.70
2022-10-20T14:04:36.531Z,10.80
2022-10-20T14:07:05.293Z,10.70
2022-10-20T14:09:32.258Z,11.70
2022-10-20T14:12:03.028Z,10.70
2022-10-20T14:14:30.817Z,11.50
2022-10-20T14:16:59.218Z,10.70
2022-10-20T14:19:30.630Z,10.60
2022-10-20T14:22:09.585Z,10.70
2022-10-20T14:24:44.901Z,10.60
2022-10-20T14:27:20.571Z,10.60
2022-10-20T14:29:48.186Z,10.50
2022-10-20T14:32:29.699Z,10.50
2022-10-20T14:35:16.571Z,10.50
2022-10-20T14:37:50.957Z,10.40
2022-10-20T14:40:24.606Z,10.40
2022-10-20T14:42:52.234Z,11.20
2022-10-20T14:45:25.082Z,10.30
2022-10-20T14:47:53.365Z,10.50
2022-10-20T14:50:33.135Z,10.30
2022-10-20T14:53:29.091Z,10.20
2022-10-20T14:56:00.133Z,10.40
2022-10-20T14:58:34.148Z,10.10
2022-10-20T15:01:19.541Z,10.10
2022-10-20T15:03:46.628Z,10.10
2022-10-20T15:06:17.659Z,10.00
2022-10-20T15:08:55.226Z,10.00
2022-10-20T15:11:27.127Z,10.30
2022-10-20T15:13:56.046Z,10.90
2022-10-20T15:16:41.573Z,9.80
2022-10-20T15:19:23.611Z,9.80
2022-10-20T15:21:57.836Z,10.50
2022-10-20T15:24:24.551Z,9.70
2022-10-20T15:26:51.259Z,9.60
2022-10-20T15:29:18.447Z,9.60
2022-10-20T15:31:45.217Z,9.50
2022-10-20T15:34:12.595Z,9.50
2022-10-20T15:36:42.098Z,10.40
2022-10-20T15:39:09.679Z,10.20
2022-10-20T15:41:36.949Z,10.40
2022-10-20T15:44:14.417Z,9.30
2022-10-20T15:46:42.726Z,9.20
2022-10-20T15:49:09.715Z,9.10
2022-10-20T15:51:38.320Z,9.10
2022-10-20T15:54:05.033Z,9.00
2022-10-20T15:56:32.941Z,8.90
2022-10-20T15:58:59.794Z,9.60
2022-10-20T16:01:28.025Z,8.80
2022-10-20T16:03:55.784Z,8.70
2022-10-20T16:06:22.567Z,8.70
2022-10-20T16:08:50.812Z,8.50
2022-10-20T16:11:19.322Z,8.60
2022-10-20T16:13:46.437Z,9.00
2022-10-20T16:16:15.356Z,8.50
2022-10-20T16:18:42.386Z,9.30
2022-10-20T16:21:09.627Z,8.40
2022-10-20T16:23:42.114Z,9.30
2022-10-20T16:26:11.114Z,8.40
2022-10-20T16:28:38.357Z,8.30
2022-10-20T16:31:07.287Z,8.30
2022-10-20T16:33:34.276Z,9.20
2022-10-20T16:38:39.064Z,8.20
2022-10-20T16:41:09.953Z,8.10
2022-10-20T16:43:38.086Z,8.10
2022-10-20T16:46:06.516Z,8.00
2022-10-20T16:48:35.738Z,8.00
2022-10-20T16:51:10.103Z,7.90
2022-10-20T16:53:37.093Z,7.90
2022-10-20T16:56:04.868Z,7.90
2022-10-20T16:58:31.598Z,7.90
2022-10-20T17:00:59.563Z,7.80
2022-10-20T17:03:26.307Z,8.80
2022-10-20T17:06:01.763Z,7.70
2022-10-20T17:08:30.464Z,8.90
2022-10-20T17:11:02.251Z,7.70
2022-10-20T17:13:29.793Z,7.70
2022-10-20T17:15:57.331Z,7.80
2022-10-20T17:18:24.353Z,7.70
2022-10-20T17:20:55.297Z,8.90
2022-10-20T17:23:23.648Z,8.00
2022-10-20T17:25:51.129Z,7.60
2022-10-20T17:28:18.654Z,7.60
2022-10-20T17:30:47.591Z,7.60
2022-10-20T17:33:14.405Z,7.50
2022-10-20T17:35:44.752Z,7.50
2022-10-20T17:38:11.506Z,8.60
2022-10-20T17:40:38.851Z,7.80
2022-10-20T17:43:05.626Z,7.40
2022-10-20T17:45:34.959Z,7.40
2022-10-20T17:48:04.526Z,8.80
2022-10-20T17:50:31.665Z,8.40
2022-10-20T17:53:02.574Z,7.30
2022-10-20T17:55:29.490Z,7.30
2022-10-20T17:57:56.512Z,7.70
2022-10-20T18:00:43.869Z,7.30
2022-10-20T18:03:10.181Z,7.30
2022-10-20T18:05:37.170Z,7.30
2022-10-20T18:08:04.002Z,7.20
2022-10-20T18:10:30.746Z,8.20
2022-10-20T18:12:57.864Z,7.20
2022-10-20T18:15:24.586Z,7.10
2022-10-20T18:17:51.514Z,7.20
2022-10-20T18:20:18.262Z,7.10
2022-10-20T18:22:45.674Z,7.20
2022-10-20T18:25:12.495Z,9.40
2022-10-20T18:27:39.223Z,7.60
2022-10-20T18:30:08.067Z,7.10
2022-10-20T18:32:36.644Z,7.10
2022-10-20T18:35:03.797Z,7.10
2022-10-20T18:37:30.471Z,7.00
2022-10-20T18:39:57.670Z,7.00
2022-10-20T18:42:24.413Z,7.00
2022-10-20T18:44:51.093Z,7.00
2022-10-20T18:47:17.764Z,7.00
2022-10-20T18:49:44.460Z,7.00
2022-10-20T18:52:11.306Z,7.00
2022-10-20T18:54:38.298Z,7.00
2022-10-20T18:57:05.224Z,6.90
2022-10-20T18:59:31.913Z,7.00
2022-10-20T19:01:58.664Z,8.10
2022-10-20T19:04:25.382Z,7.80
2022-10-20T19:06:52.291Z,6.90
2022-10-20T19:09:20.963Z,6.80
2022-10-20T19:14:20.810Z,6.80
2022-10-20T19:16:48.767Z,6.80
2022-10-20T19:19:16.052Z,6.80
2022-10-20T19:21:42.951Z,6.80
2022-10-20T19:24:22.409Z,6.80
2022-10-20T19:27:02.190Z,6.70
2022-10-20T19:29:35.098Z,7.40
2022-10-20T19:32:05.383Z,6.70
2022-10-20T19:34:35.317Z,6.70
2022-10-20T19:37:03.103Z,6.70
2022-10-20T19:39:37.049Z,6.70
2022-10-20T19:42:06.104Z,6.70
2022-10-20T19:44:33.808Z,6.70
2022-10-20T19:47:00.900Z,6.70
2022-10-20T19:49:28.380Z,6.70
2022-10-20T19:51:55.301Z,7.80
2022-10-20T19:54:22.089Z,6.60
2022-10-20T19:56:48.771Z,8.30
2022-10-20T19:59:15.872Z,6.70
2022-10-20T20:01:42.729Z,6.70
2022-10-20T20:04:10.856Z,6.70
2022-10-20T20:06:37.701Z,6.70
2022-10-20T20:09:07.282Z,6.70
2022-10-20T20:11:36.550Z,6.70
2022-10-20T20:14:17.256Z,7.30
2022-10-20T20:16:46.031Z,6.60
2022-10-20T20:19:14.445Z,6.60
2022-10-20T20:21:41.629Z,8.20
2022-10-20T20:24:11.417Z,6.00
2022-10-20T20:26:38.140Z,6.70
2022-10-20T20:29:05.751Z,6.60
2022-10-20T20:31:33.646Z,6.60
2022-10-20T20:34:00.834Z,6.60
2022-10-20T20:36:28.725Z,7.70
2022-10-20T20:38:58.087Z,6.60
2022-10-20T20:41:27.324Z,6.50
2022-10-20T20:43:54.757Z,6.50
2022-10-20T20:46:24.688Z,9.10
2022-10-20T20:48:51.594Z,6.50
2022-10-20T20:51:18.526Z,6.50
2022-10-20T20:53:45.216Z,6.50
2022-10-20T20:56:14.049Z,6.50
2022-10-20T20:58:42.199Z,7.70
2022-10-20T21:01:19.126Z,6.70
2022-10-20T21:03:46.328Z,6.50
2022-10-20T21:06:15.649Z,6.50
2022-10-20T21:08:46.292Z,6.40
2022-10-20T21:11:18.869Z,6.40
2022-10-20T21:13:46.872Z,6.30
2022-10-20T21:16:16.055Z,6.40
2022-10-20T21:18:46.248Z,6.50
2022-10-20T21:21:33.349Z,7.30
2022-10-20T21:24:01.805Z,6.30
2022-10-20T21:26:30.146Z,6.20
2022-10-20T21:28:57.764Z,6.20
2022-10-20T21:31:26.262Z,6.30
2022-10-20T21:33:55.792Z,6.20
2022-10-20T21:36:23.685Z,6.40
2022-10-20T21:38:52.339Z,7.60
2022-10-20T21:41:21.876Z,6.30
2022-10-20T21:43:54.556Z,7.30
2022-10-20T21:46:25.718Z,6.20
2022-10-20T21:48:55.142Z,6.20
2022-10-20T21:51:23.425Z,6.20
2022-10-20T21:54:00.690Z,6.20
2022-10-20T21:56:28.117Z,6.20
2022-10-20T21:58:55.643Z,6.20
2022-10-20T22:01:24.587Z,6.20
2022-10-20T22:03:53.378Z,6.20
2022-10-20T22:06:22.591Z,6.10
2022-10-20T22:08:51.666Z,6.10
2022-10-20T22:11:21.853Z,6.20
2022-10-20T22:13:49.965Z,6.10
2022-10-20T22:16:20.558Z,6.10
2022-10-20T22:18:47.463Z,6.10
2022-10-20T22:21:17.256Z,6.10
2022-10-20T22:23:44.714Z,6.00
2022-10-20T22:26:12.415Z,6.10
2022-10-20T22:28:39.318Z,6.00
2022-10-20T22:31:07.531Z,6.00
2022-10-20T22:33:35.011Z,6.00
2022-10-20T22:36:02.465Z,6.10
2022-10-20T22:38:29.350Z,6.00
2022-10-20T22:41:02.814Z,6.10
2022-10-20T22:43:30.940Z,6.00
2022-10-20T22:45:58.287Z,7.30
2022-10-20T22:48:25.217Z,6.00
2022-10-20T22:50:51.987Z,6.00
2022-10-20T22:53:18.947Z,6.00
2022-10-20T22:55:45.820Z,6.00
2022-10-20T22:58:12.759Z,7.70
2022-10-20T23:00:40.667Z,5.90
2022-10-20T23:03:07.787Z,5.90
2022-10-20T23:05:34.644Z,5.90
2022-10-20T23:08:01.335Z,5.80
2022-10-20T23:10:28.182Z,5.90
2022-10-20T23:12:54.911Z,5.80
2022-10-20T23:15:21.754Z,5.80
2022-10-20T23:17:48.506Z,5.80
2022-10-20T23:20:15.506Z,5.80
2022-10-20T23:22:42.220Z,5.80
2022-10-20T23:25:09.611Z,5.80
2022-10-20T23:27:36.820Z,5.70
2022-10-20T23:30:03.963Z,5.70
2022-10-20T23:32:30.862Z,5.70
2022-10-20T23:34:57.765Z,5.70
2022-10-20T23:37:24.465Z,5.70
2022-10-20T23:39:51.155Z,5.60
2022-10-20T23:42:18.045Z,5.30
2022-10-20T23:44:44.820Z,5.60
2022-10-20T23:47:11.533Z,5.60
2022-10-20T23:49:38.241Z,5.50
2022-10-20T23:52:05.131Z,5.50
2022-10-20T23:54:31.919Z,5.50
2022-10-20T23:56:58.694Z,5.40
2022-10-20T23:59:25.367Z,5.40
